Flight Track Log - Related Links

Times and Time Zones

All times are in EDT time to prevent confusion due to time zone crossing. See the AAY876 flight status page for this flight to view local times or setup timezone preferences in your user account.

Time Position Orientation Groundspeed Altitude Reporting Facility
EDT Latitude Longitude Course Direction KTS MPH feet Rate Location/Type
Mon 04:37:00 PM 28.8315 -82.8763 350° North  Level FlightAware Approximate
Mon 04:38:00 PM 28.9475 -82.9035 348° North  Level FlightAware Approximate
Mon 04:39:00 PM 29.0632 -82.9325 348° North  Level FlightAware Approximate
Mon 04:40:00 PM 29.1801 -82.9539 351° North  Level FlightAware Approximate
Mon 04:41:00 PM 29.2970 -82.9761 350° North  Level FlightAware Approximate
Mon 04:42:00 PM 29.4139 -82.9961 350° North  Level FlightAware Approximate
Mon 04:42:04 PM 27.9372 -82.6919 340° North 163 188 1,300  Level Miami Center
Mon 04:42:55 PM 27.9833 -82.6667 26° Northeast 230 265 2,300 2,000 Climbing Tampa TRACON
Mon 04:43:00 PM 29.5281 -83.0316 344° North  Level FlightAware Approximate
Mon 04:43:55 PM 28.0500 -82.6667 360° North 272 313 5,000  Level Tampa TRACON
Mon 04:44:00 PM 29.6381 -83.0691 337° Northwest  Level FlightAware Approximate
Mon 04:44:55 PM 28.1333 -82.6833 350° North 269 310 7,500  Level Tampa TRACON
Mon 04:45:00 PM 29.7469 -83.1229 338° Northwest  Level FlightAware Approximate
Mon 04:46:00 PM 29.8569 -83.1736 338° Northwest  Level FlightAware Approximate
Mon 04:46:19 PM 28.2500 -82.7000 353° North 306 352 10,700  Level Tampa TRACON
Mon 04:46:55 PM 28.3000 -82.7000 360° North 341 392 11,300 1,644 Climbing Tampa TRACON
Mon 04:47:00 PM 29.9670 -83.2239 340° North  Level FlightAware Approximate
Mon 04:48:45 PM 28.4733 -82.7533 345° North 352 405 14,700  Level Jacksonville Center
Mon 04:49:45 PM 28.5778 -82.7814 347° North 371 427 16,700 1,900 Climbing Jacksonville Center
Mon 04:50:45 PM 28.6842 -82.8097 347° North 382 440 18,500 1,900 Climbing Jacksonville Center
Mon 04:51:45 PM 28.7906 -82.8358 348° North 387 445 20,500 1,700 Climbing Jacksonville Center
Mon 04:52:45 PM 28.8992 -82.8642 347° North 392 451 21,900 1,300 Climbing Jacksonville Center
Mon 04:53:45 PM 29.0139 -82.8925 348° North 397 457 23,100 1,200 Climbing Jacksonville Center
Mon 04:54:45 PM 29.1286 -82.9233 347° North 408 470 24,300 1,150 Climbing Jacksonville Center
Mon 04:55:45 PM 29.2478 -82.9544 347° North 420 483 25,400 1,200 Climbing Jacksonville Center
Mon 04:56:45 PM 29.3708 -82.9878 347° North 431 496 26,700 1,150 Climbing Jacksonville Center
Mon 04:57:45 PM 29.5064 -83.0286 345° North 448 516 27,700 1,000 Climbing Jacksonville Center
Mon 04:58:45 PM 29.6297 -83.0669 345° North 452 520 28,700 850 Climbing Jacksonville Center
Mon 04:59:45 PM 29.7506 -83.1197 339° North 454 522 29,400 650 Climbing Jacksonville Center
Mon 05:00:45 PM 29.8694 -83.1753 338° Northwest 459 528 30,000 650 Climbing Jacksonville Center
Mon 05:01:45 PM 29.9819 -83.2594 327° Northwest 459 528 30,700 950 Climbing Jacksonville Center
Mon 05:02:45 PM 30.0925 -83.3439 327° Northwest 475 547 31,900 1,250 Climbing Jacksonville Center
Mon 05:03:45 PM 30.1964 -83.4214 327° Northwest 469 540 33,200 1,100 Climbing Jacksonville Center
Mon 05:04:45 PM 30.3153 -83.4653 342° North 437 503 34,100 950 Climbing Jacksonville Center
Mon 05:05:45 PM 30.4386 -83.4419 North 425 489 35,100 700 Climbing Jacksonville Center
Mon 05:06:45 PM 30.5594 -83.4764 346° North 431 496 35,500 350 Climbing Jacksonville Center
Mon 05:07:45 PM 30.6783 -83.5375 336° Northwest 441 507 35,800 250 Climbing Jacksonville Center
Mon 05:08:45 PM 30.7844 -83.5889 337° Northwest 449 517 36,000 100 Climbing Jacksonville Center
Mon 05:09:45 PM 30.9072 -83.6528 336° Northwest 459 528 36,000  Level Jacksonville Center
Mon 05:10:45 PM 31.0303 -83.7119 338° Northwest 464 534 36,000  Level Jacksonville Center
Mon 05:11:45 PM 31.1531 -83.7714 337° Northwest 464 534 36,000  Level Jacksonville Center
Mon 05:13:58 PM 31.4189 -83.9100 336° Northwest 477 549 36,000  Level Atlanta Center
Mon 05:14:58 PM 31.5419 -83.9658 339° North 477 549 36,000  Level Atlanta Center
Mon 05:15:58 PM 31.6714 -83.9975 348° North 477 549 36,000  Level Atlanta Center
Mon 05:16:58 PM 31.8031 -84.0242 350° North 477 549 36,000  Level Atlanta Center
Mon 05:17:58 PM 31.9325 -84.0511 350° North 472 543 36,000  Level Atlanta Center
Mon 05:18:58 PM 32.0617 -84.0781 350° North 467 537 36,000  Level Atlanta Center
Mon 05:19:58 PM 32.1892 -84.1075 349° North 467 537 36,000  Level Atlanta Center
Mon 05:20:58 PM 32.3164 -84.1372 349° North 467 537 36,000  Level Atlanta Center
Mon 05:21:58 PM 32.4436 -84.1669 349° North 467 537 36,000  Level Atlanta Center
Mon 05:22:58 PM 32.5731 -84.1967 349° North 467 537 36,000  Level Atlanta Center
Mon 05:23:58 PM 32.7025 -84.2239 350° North 467 537 36,000  Level Atlanta Center
Mon 05:24:58 PM 32.8275 -84.2539 349° North 467 537 36,000  Level Atlanta Center
Mon 05:25:58 PM 32.9528 -84.2814 350° North 467 537 36,000  Level Atlanta Center
Mon 05:26:58 PM 33.0822 -84.3117 349° North 467 537 36,000  Level Atlanta Center
Mon 05:33:06 PM 33.8809 -84.4960 349° North 463 533 36,000  Level FlightAware ADS-B (KDZJ)
Mon 05:33:47 PM 33.9666 -84.5170 349° North 463 533 36,000  Level FlightAware ADS-B (KDZJ)
Mon 05:34:27 PM 34.0515 -84.5377 348° North 459 528 36,000  Level FlightAware ADS-B (KDZJ)
Mon 05:35:08 PM 34.1372 -84.5585 349° North 459 528 36,000  Level FlightAware ADS-B (KDZJ)
Mon 05:35:47 PM 34.2216 -84.5791 348° North 459 528 36,000  Level FlightAware ADS-B (KDZJ)
Mon 05:36:28 PM 34.3070 -84.6000 348° North 458 527 36,000  Level FlightAware ADS-B (KDZJ)
Mon 05:37:07 PM 34.3904 -84.6203 348° North 458 527 36,000  Level FlightAware ADS-B (KDZJ)
Mon 05:37:48 PM 34.4759 -84.6413 348° North 457 526 36,000  Level FlightAware ADS-B (KDZJ)
Mon 05:38:28 PM 34.5606 -84.6621 348° North 456 525 36,000  Level FlightAware ADS-B (KDZJ)
Mon 05:39:07 PM 34.6433 -84.6825 348° North 457 526 36,000  Level FlightAware ADS-B (KDZJ)
Mon 05:39:48 PM 34.7289 -84.7038 349° North 462 532 36,000  Level FlightAware ADS-B (KDZJ)
Mon 05:40:27 PM 34.8114 -84.7243 348° North 462 532 36,000  Level FlightAware ADS-B (KDZJ)
Mon 05:41:08 PM 34.8973 -84.7457 348° North 462 532 36,000  Level FlightAware ADS-B (KDZJ)
Mon 05:41:47 PM 34.9792 -84.7662 348° North 463 533 36,000  Level FlightAware ADS-B (KDZJ)
Mon 05:42:28 PM 35.0649 -84.7876 348° North 462 532 36,000  Level FlightAware ADS-B (KDZJ)
Mon 05:42:59 PM 35.1302 -84.8039 348° North 463 533 36,000  Level FlightAware ADS-B (KDZJ)
Mon 05:43:48 PM 35.2283 -84.8285 348° North 463 533 36,000  Level FlightAware ADS-B (KMDQ)
Mon 05:44:28 PM 35.3151 -84.8504 348° North 462 532 36,000  Level FlightAware ADS-B (KMDQ)
Mon 05:45:45 PM 35.4731 -84.8902 348° North 460 529 36,000  Level FlightAware ADS-B (KMDQ)
Mon 05:47:09 PM 35.6520 -84.9355 348° North 462 532 36,000  Level FlightAware ADS-B (KMDQ)
Mon 05:48:09 PM 35.7764 -84.9671 348° North 460 529 36,000  Level FlightAware ADS-B (KMDQ)
Mon 05:48:50 PM 35.8546 -84.9870 348° North 461 531 36,000  Level FlightAware ADS-B (KMDQ)
Mon 05:49:25 PM 35.9307 -85.0064 348° North 462 532 36,000  Level FlightAware ADS-B (KMDQ)
Mon 05:50:09 PM 36.0288 -85.0315 348° North 465 535 36,000  Level FlightAware ADS-B (KMDQ)
Mon 05:50:50 PM 36.1143 -85.0526 351° North 467 537 36,000  Level FlightAware ADS-B (KMDQ)
Mon 05:51:36 PM 36.2100 -85.0603 358° North 474 545 36,000  Level FlightAware ADS-B
Mon 05:52:39 PM 36.3535 -85.0606 360° North 477 549 36,000  Level FlightAware ADS-B (KMDQ)
Mon 05:53:24 PM 36.4543 -85.0608 360° North 478 550 36,000  Level FlightAware ADS-B (KMDQ)
Mon 05:53:44 PM 36.4716 -85.0609 180° South 478 550 36,000  Level FlightAware ADS-B (KMDQ)
Mon 05:54:20 PM 36.5731 -85.0854 338° Northwest 465 535 36,000  Level FlightAware ADS-B (KMDQ)
Mon 05:55:24 PM 36.6995 -85.1465 340° North 462 532 36,000  Level FlightAware ADS-B
Mon 05:56:32 PM 36.8371 -85.2108 339° North 463 533 36,000  Level FlightAware ADS-B
Mon 05:57:03 PM 36.8984 -85.2398 339° North 466 536 36,000  Level FlightAware ADS-B
Mon 05:58:31 PM 37.0491 -85.3113 339° North 469 540 36,000  Level FlightAware ADS-B
Mon 05:59:16 PM 37.1692 -85.3685 339° North 469 540 36,000  Level FlightAware ADS-B
Mon 06:00:16 PM 37.2884 -85.4255 339° North 467 537 36,000  Level FlightAware ADS-B
Mon 06:01:00 PM 37.3666 -85.4631 339° North 464 534 36,000  Level FlightAware ADS-B
Mon 06:01:31 PM 37.4404 -85.4985 339° North 463 533 36,000  Level FlightAware ADS-B
Mon 06:02:02 PM 37.5019 -85.5282 339° North 462 532 36,000  Level FlightAware ADS-B
Mon 06:02:38 PM 37.5748 -85.5633 339° North 462 532 36,000  Level FlightAware ADS-B
Mon 06:03:08 PM 37.6331 -85.5915 339° North 461 531 36,000  Level FlightAware ADS-B
Mon 06:03:50 PM 37.7179 -85.6326 339° North 459 528 36,000  Level FlightAware ADS-B
Mon 06:04:22 PM 37.7785 -85.6620 339° North 457 526 36,000  Level FlightAware ADS-B
Mon 06:05:09 PM 37.8710 -85.7070 339° North 453 521 36,000  Level FlightAware ADS-B
Mon 06:05:53 PM 37.9588 -85.7498 339° North 453 521 36,000  Level FlightAware ADS-B
Mon 06:06:33 PM 38.0373 -85.7882 339° North 456 525 36,000  Level FlightAware ADS-B
Mon 06:07:19 PM 38.1252 -85.8313 339° North 458 527 36,000 48 Level FlightAware ADS-B
Mon 06:08:38 PM 38.2854 -85.9101 339° North 458 527 36,100  Climbing FlightAware ADS-B
Mon 06:09:37 PM 38.4013 -85.9673 339° North 456 525 36,000 -53 Descending FlightAware ADS-B
Mon 06:10:31 PM 38.5084 -86.0201 339° North 453 521 36,000  Level FlightAware ADS-B
Mon 06:11:18 PM 38.5957 -86.0636 339° North 453 521 36,000  Level FlightAware ADS-B
Mon 06:13:26 PM 38.8392 -86.1853 339° North 455 524 36,000  Level Indianapolis Center
Mon 06:19:34 PM 39.5702 -86.5557 338° Northwest 451 519 36,000  Level FlightAware ADS-B
Mon 06:20:26 PM 39.6741 -86.6091 338° Northwest 451 519 36,000  Level FlightAware ADS-B
Mon 06:21:07 PM 39.7551 -86.6510 338° Northwest 451 519 36,000  Level FlightAware ADS-B
Mon 06:21:39 PM 39.8183 -86.6836 338° Northwest 459 528 36,000  Level FlightAware ADS-B
Mon 06:22:09 PM 39.8734 -86.7120 338° Northwest 461 531 36,000  Level FlightAware ADS-B
Mon 06:22:49 PM 39.9564 -86.7550 338° Northwest 465 535 36,000  Level FlightAware ADS-B
Mon 06:23:40 PM 40.0205 -86.7883 338° Northwest 468 539 36,000  Level FlightAware ADS-B
Mon 06:24:25 PM 40.1487 -86.8552 338° Northwest 469 540 36,000  Level FlightAware ADS-B
Mon 06:25:18 PM 40.2573 -86.9118 338° Northwest 471 542 36,000  Level FlightAware ADS-B
Mon 06:26:20 PM 40.3542 -87.0090 308° West 427 491 36,000  Level FlightAware ADS-B
Mon 06:26:53 PM 40.3867 -87.0635 308° West 426 490 36,000  Level FlightAware ADS-B
Mon 06:27:27 PM 40.4382 -87.1488 308° West 425 489 36,000  Level FlightAware ADS-B
Mon 06:28:08 PM 40.4869 -87.2298 308° West 426 490 36,000  Level FlightAware ADS-B
Mon 06:28:39 PM 40.5260 -87.2940 309° West 429 494 36,000  Level FlightAware ADS-B
Mon 06:29:10 PM 40.5644 -87.3575 309° West 431 496 36,000 -171 Level FlightAware ADS-B
Mon 06:29:49 PM 40.6129 -87.4377 308° West 429 494 35,800 -593 Descending FlightAware ADS-B
Mon 06:30:31 PM 40.6647 -87.5235 308° West 427 491 35,200 -1,000 Descending FlightAware ADS-B
Mon 06:31:01 PM 40.7016 -87.5854 308° West 431 496 34,600 -1,807 Descending FlightAware ADS-B
Mon 06:31:54 PM 40.7663 -87.6935 308° West 422 486 32,700 -2,969 Descending FlightAware ADS-B
Mon 06:32:38 PM 40.8199 -87.7838 308° West 425 489 29,800 -2,747 Descending FlightAware ADS-B
Mon 06:33:17 PM 40.8659 -87.8608 308° West 398 458 28,900 -1,417 Descending FlightAware ADS-B
Mon 06:33:50 PM 40.9000 -87.9183 308° West 384 442 28,100 -857 Descending FlightAware ADS-B
Mon 06:34:20 PM 40.9351 -87.9781 308° West 389 448 28,000 -97 Descending FlightAware ADS-B
Mon 06:34:52 PM 40.9704 -88.0381 308° West 389 448 28,000 -357 Level FlightAware ADS-B
Mon 06:35:44 PM 41.0279 -88.1353 308° West 382 440 27,500 -1,084 Descending FlightAware ADS-B
Mon 06:36:15 PM 41.0615 -88.1923 308° West 374 430 26,500 -2,000 Descending FlightAware ADS-B
Mon 06:36:47 PM 41.0946 -88.2487 308° West 364 419 25,400 -2,032 Descending FlightAware ADS-B
Mon 06:37:17 PM 41.1224 -88.2961 308° West 355 409 24,400 -988 Descending FlightAware ADS-B
Mon 06:38:12 PM 41.1798 -88.3943 308° West 351 404 24,000 -700 Descending FlightAware ADS-B
Mon 06:39:17 PM 41.2436 -88.5038 308° West 338 389 23,000 -1,486 Descending FlightAware ADS-B
Mon 06:39:57 PM 41.2754 -88.5584 308° West 338 389 21,400 -3,123 Descending FlightAware ADS-B
Mon 06:40:30 PM 41.3134 -88.6238 308° West 339 390 19,200 -4,047 Descending FlightAware ADS-B
Mon 06:41:23 PM 41.3635 -88.7108 307° West 342 394 15,600 -3,253 Descending FlightAware ADS-B
Mon 06:41:53 PM 41.3791 -88.7380 307° West 332 382 14,700 -2,129 Descending FlightAware ADS-B
Mon 06:42:25 PM 41.4207 -88.8101 307° West 315 362 13,400 -2,174 Descending FlightAware ADS-B
Mon 06:43:02 PM 41.4499 -88.8612 307° West 301 346 12,200 -1,826 Descending FlightAware ADS-B
Mon 06:43:57 PM 41.4984 -88.9454 307° West 294 338 10,600 -1,370 Descending FlightAware ADS-B
Mon 06:44:34 PM 41.5278 -88.9964 308° West 277 319 10,100 -385 Descending FlightAware ADS-B
Mon 06:45:15 PM 41.5587 -89.0501 307° West 268 308 10,100  Level FlightAware ADS-B
Mon 06:45:52 PM 41.5887 -89.1027 313° West 268 308 10,100  Level FlightAware ADS-B
Mon 06:46:07 PM 41.6016 -89.1170 331° Northwest 274 315 10,100  Level FlightAware ADS-B
Mon 06:46:26 PM 41.6242 -89.1283 343° North 270 311 10,100  Level FlightAware ADS-B
Mon 06:47:15 PM 41.6822 -89.1522 343° North 265 305 10,100 -412 Level FlightAware ADS-B
Mon 06:48:08 PM 41.7303 -89.1726 342° North 275 316 9,400 -1,252 Descending FlightAware ADS-B
Mon 06:49:10 PM 41.8201 -89.1551 12° North 283 326 7,700 -1,680 Descending FlightAware ADS-B
Mon 06:49:48 PM 41.8640 -89.1419 13° North 276 318 6,600 -1,619 Descending FlightAware ADS-B
Mon 06:51:16 PM 41.9633 -89.1122 13° North 273 314 4,300 -1,560 Descending Chicago Center
Mon 06:52:18 PM 42.0469 -89.0903 11° North 264 304 2,700 -919 Descending Chicago Center
Mon 06:53:20 PM 42.1103 -89.0700 13° North 251 289 2,400 -145 Descending Chicago Center
Mon 06:54:22 PM 42.1344 -89.0050 63° Northeast 219 252 2,400 -97 Level Chicago Center
Mon 06:55:24 PM 42.1747 -88.9867 19° North 190 219 2,200 -194 Descending Chicago Center
Mon 06:56:26 PM 42.2158 -89.0106 337° Northwest 168 193 2,000 -194 Descending Chicago Center

Login

Don't have an account? Register now (free) for customized features, flight alerts, and more!